CLVO2: Canadian River, Calvin, OKla

Data processed at Fri Jun 15 2018 23:19


All information presented herein is the property of the government of the United States of America and may be revised or deleted at any time without prior notice.
Dissemination of this information without the expressed written consent of the Public Affairs Office, Tulsa District U.S. Army Corps of Engineers is strictly prohibited.
These data are gathered electronically and, as presented, have not undergone any form of quality control. These data are not guaranteed to be valid or correct.
Go to home page.
Go to station list.

Upstream stations:

Downstream station:
Previous Day
Next Day
Current Day
    
SHEF ID:       CLVO2     Canadian River at Calvin, OK
STATION TYPE:  

               PRECIP     STAGE  STAGE(2)  RIV-FLOW  BAT-LOAD
                   in        ft        ft       cfs      volt
              Ccp-Rev   Ccp-Rev   Ccp-Rev   Ccp-Rev   Ccp-Rev
(US/Central)
06/13 00:00      0.00      6.05      ----       206     13.21
06/13 01:00      0.00      6.02      ----       196     13.21
06/13 02:00      0.00      6.00      ----       190     13.21
06/13 03:00      0.00      5.99      ----       187     13.21
06/13 04:00      0.00      5.97      ----       181     13.13
06/13 05:00      0.00      5.96      ----       178     13.13
06/13 06:00      0.00      5.95      ----       175     13.05
06/13 07:00      0.00      5.93      ----       169     13.05
06/13 08:00      0.00      5.93      ----       169     13.13
06/13 09:00      0.00      5.91      ----       164     13.37
06/13 10:00      0.00      5.91      ----       164     13.92
06/13 11:00      0.00      5.91      ----       164     14.08
06/13 12:00      0.00      5.90      ----       161     14.00
06/13 13:00      0.00      5.90      ----       161     14.00
06/13 14:00      0.00      5.89      ----       158     14.00
06/13 15:00      0.00      5.88      ----       156     13.92
06/13 16:00      0.00      5.87      ----       153     13.76
06/13 17:00      0.00      5.86      ----       151     13.68
06/13 18:00      0.00      5.85      ----       148     13.68
06/13 19:00      0.00      5.84      ----       146     13.60
06/13 20:00      0.00      5.83      ----       143     13.60
06/13 21:00      0.00      5.82      ----       141     13.29
06/13 22:00      0.00      5.81      ----       138     13.29
06/13 23:00      0.00      5.80      ----       136     13.29